sensor_id;sensor_type;location;lat;lon;timestamp;temperature;humidity
68358;DHT22;55276;53.260;50.222;2022-08-21T00:01:48;20.20;49.90
68358;DHT22;55276;53.260;50.222;2022-08-21T00:04:14;20.20;50.20
68358;DHT22;55276;53.260;50.222;2022-08-21T00:06:40;20.20;50.20
68358;DHT22;55276;53.260;50.222;2022-08-21T00:09:07;20.10;50.20
68358;DHT22;55276;53.260;50.222;2022-08-21T00:11:33;20.10;50.40
68358;DHT22;55276;53.260;50.222;2022-08-21T00:14:00;20.10;50.50
68358;DHT22;55276;53.260;50.222;2022-08-21T00:16:27;20.10;50.60
68358;DHT22;55276;53.260;50.222;2022-08-21T00:18:53;20.00;50.70
68358;DHT22;55276;53.260;50.222;2022-08-21T00:21:19;20.00;50.80
68358;DHT22;55276;53.260;50.222;2022-08-21T00:23:45;20.00;50.90
68358;DHT22;55276;53.260;50.222;2022-08-21T00:26:11;19.90;51.10
68358;DHT22;55276;53.260;50.222;2022-08-21T00:28:37;20.00;51.10
68358;DHT22;55276;53.260;50.222;2022-08-21T00:31:03;19.90;51.20
68358;DHT22;55276;53.260;50.222;2022-08-21T00:33:30;19.90;51.40
68358;DHT22;55276;53.260;50.222;2022-08-21T00:35:56;19.90;51.40
68358;DHT22;55276;53.260;50.222;2022-08-21T00:38:22;19.90;51.60
68358;DHT22;55276;53.260;50.222;2022-08-21T00:40:49;19.80;51.80
68358;DHT22;55276;53.260;50.222;2022-08-21T00:43:18;19.80;51.80
68358;DHT22;55276;53.260;50.222;2022-08-21T00:45:44;19.80;51.90
68358;DHT22;55276;53.260;50.222;2022-08-21T00:48:10;19.80;52.00
68358;DHT22;55276;53.260;50.222;2022-08-21T00:50:37;19.80;52.10
68358;DHT22;55276;53.260;50.222;2022-08-21T00:53:05;19.70;52.20
68358;DHT22;55276;53.260;50.222;2022-08-21T00:55:32;19.70;52.30
68358;DHT22;55276;53.260;50.222;2022-08-21T00:57:59;19.70;52.40
68358;DHT22;55276;53.260;50.222;2022-08-21T01:00:26;19.70;52.50
68358;DHT22;55276;53.260;50.222;2022-08-21T01:02:56;19.70;52.50
68358;DHT22;55276;53.260;50.222;2022-08-21T01:05:22;19.60;52.80
68358;DHT22;55276;53.260;50.222;2022-08-21T01:07:48;19.60;52.80
68358;DHT22;55276;53.260;50.222;2022-08-21T01:10:15;19.60;52.90
68358;DHT22;55276;53.260;50.222;2022-08-21T01:12:42;19.60;53.10
68358;DHT22;55276;53.260;50.222;2022-08-21T01:15:09;19.50;53.10
68358;DHT22;55276;53.260;50.222;2022-08-21T01:17:37;19.50;53.30
68358;DHT22;55276;53.260;50.222;2022-08-21T01:20:04;19.50;53.30
68358;DHT22;55276;53.260;50.222;2022-08-21T01:22:31;19.40;53.30
68358;DHT22;55276;53.260;50.222;2022-08-21T01:24:57;19.40;53.40
68358;DHT22;55276;53.260;50.222;2022-08-21T01:27:23;19.50;53.40
68358;DHT22;55276;53.260;50.222;2022-08-21T01:29:56;19.40;53.60
68358;DHT22;55276;53.260;50.222;2022-08-21T01:32:23;19.40;53.60
68358;DHT22;55276;53.260;50.222;2022-08-21T01:34:50;19.40;53.60
68358;DHT22;55276;53.260;50.222;2022-08-21T01:37:16;19.40;53.70
68358;DHT22;55276;53.260;50.222;2022-08-21T01:39:42;19.40;53.80
68358;DHT22;55276;53.260;50.222;2022-08-21T01:42:09;19.50;53.80
68358;DHT22;55276;53.260;50.222;2022-08-21T01:44:35;19.50;53.90
68358;DHT22;55276;53.260;50.222;2022-08-21T01:47:06;19.50;53.80
68358;DHT22;55276;53.260;50.222;2022-08-21T01:49:33;19.50;53.90
68358;DHT22;55276;53.260;50.222;2022-08-21T01:51:59;19.50;53.90
68358;DHT22;55276;53.260;50.222;2022-08-21T01:54:25;19.50;54.00
68358;DHT22;55276;53.260;50.222;2022-08-21T01:56:52;19.50;53.90
68358;DHT22;55276;53.260;50.222;2022-08-21T01:59:18;19.50;53.80
68358;DHT22;55276;53.260;50.222;2022-08-21T02:01:45;19.50;53.90
68358;DHT22;55276;53.260;50.222;2022-08-21T02:04:10;19.60;54.00
68358;DHT22;55276;53.260;50.222;2022-08-21T02:06:36;19.60;54.10
68358;DHT22;55276;53.260;50.222;2022-08-21T02:09:03;19.60;54.00
68358;DHT22;55276;53.260;50.222;2022-08-21T02:11:31;19.60;54.00
68358;DHT22;55276;53.260;50.222;2022-08-21T02:13:57;19.60;54.00
68358;DHT22;55276;53.260;50.222;2022-08-21T02:16:23;19.60;53.90
68358;DHT22;55276;53.260;50.222;2022-08-21T02:18:54;19.60;53.90
68358;DHT22;55276;53.260;50.222;2022-08-21T02:21:19;19.70;53.90
68358;DHT22;55276;53.260;50.222;2022-08-21T02:23:45;19.70;53.90
68358;DHT22;55276;53.260;50.222;2022-08-21T02:26:11;19.70;53.90
68358;DHT22;55276;53.260;50.222;2022-08-21T02:28:37;19.80;53.90
68358;DHT22;55276;53.260;50.222;2022-08-21T02:31:04;19.80;53.90
68358;DHT22;55276;53.260;50.222;2022-08-21T02:33:30;19.80;53.90
68358;DHT22;55276;53.260;50.222;2022-08-21T02:35:56;19.80;53.80
68358;DHT22;55276;53.260;50.222;2022-08-21T02:38:24;19.90;53.90
68358;DHT22;55276;53.260;50.222;2022-08-21T02:40:50;19.90;53.90
68358;DHT22;55276;53.260;50.222;2022-08-21T02:43:18;19.90;53.80
68358;DHT22;55276;53.260;50.222;2022-08-21T02:45:44;19.90;53.80
68358;DHT22;55276;53.260;50.222;2022-08-21T02:48:12;20.00;53.80
68358;DHT22;55276;53.260;50.222;2022-08-21T02:50:39;20.00;53.80
68358;DHT22;55276;53.260;50.222;2022-08-21T02:53:07;20.00;53.80
68358;DHT22;55276;53.260;50.222;2022-08-21T02:55:33;20.10;53.80
68358;DHT22;55276;53.260;50.222;2022-08-21T02:58:01;20.10;53.70
68358;DHT22;55276;53.260;50.222;2022-08-21T03:00:28;20.20;53.70
68358;DHT22;55276;53.260;50.222;2022-08-21T03:02:54;20.20;53.60
68358;DHT22;55276;53.260;50.222;2022-08-21T03:05:21;20.30;53.70
68358;DHT22;55276;53.260;50.222;2022-08-21T03:07:48;20.30;53.70
68358;DHT22;55276;53.260;50.222;2022-08-21T03:10:14;20.30;53.60
68358;DHT22;55276;53.260;50.222;2022-08-21T03:12:41;20.40;53.50
68358;DHT22;55276;53.260;50.222;2022-08-21T03:15:08;20.40;53.50
68358;DHT22;55276;53.260;50.222;2022-08-21T03:17:37;20.40;53.40
68358;DHT22;55276;53.260;50.222;2022-08-21T03:20:05;20.50;53.40
68358;DHT22;55276;53.260;50.222;2022-08-21T03:22:31;20.60;53.40
68358;DHT22;55276;53.260;50.222;2022-08-21T03:24:57;20.60;53.30
68358;DHT22;55276;53.260;50.222;2022-08-21T03:27:24;20.70;53.30
68358;DHT22;55276;53.260;50.222;2022-08-21T03:29:52;20.80;53.20
68358;DHT22;55276;53.260;50.222;2022-08-21T03:32:18;20.80;53.10
68358;DHT22;55276;53.260;50.222;2022-08-21T03:34:45;20.90;53.00
68358;DHT22;55276;53.260;50.222;2022-08-21T03:37:12;20.90;52.90
68358;DHT22;55276;53.260;50.222;2022-08-21T03:39:38;21.10;52.80
68358;DHT22;55276;53.260;50.222;2022-08-21T03:42:04;21.10;52.60
68358;DHT22;55276;53.260;50.222;2022-08-21T03:44:31;21.20;52.40
68358;DHT22;55276;53.260;50.222;2022-08-21T03:46:57;21.30;52.40
68358;DHT22;55276;53.260;50.222;2022-08-21T03:49:24;21.40;52.20
68358;DHT22;55276;53.260;50.222;2022-08-21T03:51:50;21.50;52.10
68358;DHT22;55276;53.260;50.222;2022-08-21T03:54:16;21.60;51.90
68358;DHT22;55276;53.260;50.222;2022-08-21T03:56:42;21.70;51.70
68358;DHT22;55276;53.260;50.222;2022-08-21T03:59:08;21.90;51.50
68358;DHT22;55276;53.260;50.222;2022-08-21T04:01:34;22.00;51.30
68358;DHT22;55276;53.260;50.222;2022-08-21T04:04:00;22.10;51.10
68358;DHT22;55276;53.260;50.222;2022-08-21T04:06:26;22.20;51.00
68358;DHT22;55276;53.260;50.222;2022-08-21T04:08:55;22.30;50.80
68358;DHT22;55276;53.260;50.222;2022-08-21T04:11:21;22.40;50.70
68358;DHT22;55276;53.260;50.222;2022-08-21T04:13:47;22.60;50.40
68358;DHT22;55276;53.260;50.222;2022-08-21T04:16:13;22.70;50.10
68358;DHT22;55276;53.260;50.222;2022-08-21T04:18:40;22.80;49.90
68358;DHT22;55276;53.260;50.222;2022-08-21T04:21:06;22.90;49.60
68358;DHT22;55276;53.260;50.222;2022-08-21T04:23:33;23.00;49.40
68358;DHT22;55276;53.260;50.222;2022-08-21T04:25:59;23.10;49.10
68358;DHT22;55276;53.260;50.222;2022-08-21T04:28:26;23.30;48.80
68358;DHT22;55276;53.260;50.222;2022-08-21T04:30:53;23.40;48.60
68358;DHT22;55276;53.260;50.222;2022-08-21T04:33:20;23.50;48.30
68358;DHT22;55276;53.260;50.222;2022-08-21T04:35:46;23.70;48.10
68358;DHT22;55276;53.260;50.222;2022-08-21T04:38:12;23.80;47.90
68358;DHT22;55276;53.260;50.222;2022-08-21T04:40:38;23.90;47.70
68358;DHT22;55276;53.260;50.222;2022-08-21T04:43:05;24.10;47.40
68358;DHT22;55276;53.260;50.222;2022-08-21T04:45:35;24.20;47.20
68358;DHT22;55276;53.260;50.222;2022-08-21T04:48:03;24.20;47.20
68358;DHT22;55276;53.260;50.222;2022-08-21T04:50:34;24.40;47.00
68358;DHT22;55276;53.260;50.222;2022-08-21T04:53:01;24.60;46.70
68358;DHT22;55276;53.260;50.222;2022-08-21T04:55:27;24.80;46.40
68358;DHT22;55276;53.260;50.222;2022-08-21T04:57:54;24.90;46.20
68358;DHT22;55276;53.260;50.222;2022-08-21T05:00:22;24.90;46.20
68358;DHT22;55276;53.260;50.222;2022-08-21T05:02:48;24.80;46.20
68358;DHT22;55276;53.260;50.222;2022-08-21T05:05:15;25.00;46.10
68358;DHT22;55276;53.260;50.222;2022-08-21T05:07:41;25.10;46.00
68358;DHT22;55276;53.260;50.222;2022-08-21T05:10:09;25.20;45.70
68358;DHT22;55276;53.260;50.222;2022-08-21T05:12:35;25.30;45.70
68358;DHT22;55276;53.260;50.222;2022-08-21T05:15:02;25.40;45.40
68358;DHT22;55276;53.260;50.222;2022-08-21T05:17:28;25.60;45.20
68358;DHT22;55276;53.260;50.222;2022-08-21T05:19:58;25.60;45.00
68358;DHT22;55276;53.260;50.222;2022-08-21T05:22:24;25.70;45.10
68358;DHT22;55276;53.260;50.222;2022-08-21T05:24:51;25.80;45.00
68358;DHT22;55276;53.260;50.222;2022-08-21T05:27:17;25.80;45.10
68358;DHT22;55276;53.260;50.222;2022-08-21T05:29:43;25.80;45.10
68358;DHT22;55276;53.260;50.222;2022-08-21T05:32:10;25.90;44.80
68358;DHT22;55276;53.260;50.222;2022-08-21T05:34:36;26.00;44.70
68358;DHT22;55276;53.260;50.222;2022-08-21T05:37:02;26.10;44.70
68358;DHT22;55276;53.260;50.222;2022-08-21T05:39:28;26.10;44.60
68358;DHT22;55276;53.260;50.222;2022-08-21T05:41:54;26.30;44.40
68358;DHT22;55276;53.260;50.222;2022-08-21T05:44:20;26.20;44.30
68358;DHT22;55276;53.260;50.222;2022-08-21T05:46:46;26.40;44.30
68358;DHT22;55276;53.260;50.222;2022-08-21T05:49:12;26.50;44.00
68358;DHT22;55276;53.260;50.222;2022-08-21T05:51:41;26.60;43.90
68358;DHT22;55276;53.260;50.222;2022-08-21T05:54:10;26.60;43.90
68358;DHT22;55276;53.260;50.222;2022-08-21T05:56:36;26.70;43.80
68358;DHT22;55276;53.260;50.222;2022-08-21T05:59:02;26.70;43.80
68358;DHT22;55276;53.260;50.222;2022-08-21T06:01:28;26.70;43.90
68358;DHT22;55276;53.260;50.222;2022-08-21T06:03:54;26.70;43.90
68358;DHT22;55276;53.260;50.222;2022-08-21T06:06:20;26.90;43.90
68358;DHT22;55276;53.260;50.222;2022-08-21T06:08:46;26.80;43.80
68358;DHT22;55276;53.260;50.222;2022-08-21T06:11:12;26.80;43.80
68358;DHT22;55276;53.260;50.222;2022-08-21T06:13:38;26.90;43.80
68358;DHT22;55276;53.260;50.222;2022-08-21T06:16:09;26.90;43.60
68358;DHT22;55276;53.260;50.222;2022-08-21T06:18:36;27.00;43.50
68358;DHT22;55276;53.260;50.222;2022-08-21T06:21:03;27.20;43.20
68358;DHT22;55276;53.260;50.222;2022-08-21T06:23:29;27.20;43.10
68358;DHT22;55276;53.260;50.222;2022-08-21T06:25:56;27.30;43.00
68358;DHT22;55276;53.260;50.222;2022-08-21T06:28:22;27.20;43.10
68358;DHT22;55276;53.260;50.222;2022-08-21T06:30:48;27.30;43.10
68358;DHT22;55276;53.260;50.222;2022-08-21T06:33:14;27.40;43.10
68358;DHT22;55276;53.260;50.222;2022-08-21T06:35:40;27.40;42.90
68358;DHT22;55276;53.260;50.222;2022-08-21T06:38:06;27.50;42.90
68358;DHT22;55276;53.260;50.222;2022-08-21T06:40:32;27.40;43.10
68358;DHT22;55276;53.260;50.222;2022-08-21T06:43:04;27.60;42.90
68358;DHT22;55276;53.260;50.222;2022-08-21T06:45:30;27.60;42.70
68358;DHT22;55276;53.260;50.222;2022-08-21T06:47:56;27.60;42.50
68358;DHT22;55276;53.260;50.222;2022-08-21T06:50:22;27.50;42.60
68358;DHT22;55276;53.260;50.222;2022-08-21T06:52:48;27.60;42.80
68358;DHT22;55276;53.260;50.222;2022-08-21T06:55:14;27.60;42.70
68358;DHT22;55276;53.260;50.222;2022-08-21T06:57:40;27.40;43.00
68358;DHT22;55276;53.260;50.222;2022-08-21T07:00:06;27.40;43.30
68358;DHT22;55276;53.260;50.222;2022-08-21T07:02:34;27.30;43.40
68358;DHT22;55276;53.260;50.222;2022-08-21T07:05:00;27.30;43.60
68358;DHT22;55276;53.260;50.222;2022-08-21T07:07:26;27.40;43.30
68358;DHT22;55276;53.260;50.222;2022-08-21T07:09:52;27.70;42.90
68358;DHT22;55276;53.260;50.222;2022-08-21T07:12:18;27.90;42.60
68358;DHT22;55276;53.260;50.222;2022-08-21T07:14:44;27.90;42.40
68358;DHT22;55276;53.260;50.222;2022-08-21T07:17:10;28.00;42.40
68358;DHT22;55276;53.260;50.222;2022-08-21T07:19:36;28.10;42.10
68358;DHT22;55276;53.260;50.222;2022-08-21T07:22:03;28.10;41.90
68358;DHT22;55276;53.260;50.222;2022-08-21T07:24:30;28.00;41.80
68358;DHT22;55276;53.260;50.222;2022-08-21T07:26:56;28.10;41.80
68358;DHT22;55276;53.260;50.222;2022-08-21T07:29:22;28.20;41.70
68358;DHT22;55276;53.260;50.222;2022-08-21T07:31:48;28.20;41.60
68358;DHT22;55276;53.260;50.222;2022-08-21T07:34:14;28.10;41.60
68358;DHT22;55276;53.260;50.222;2022-08-21T07:36:40;28.00;41.60
68358;DHT22;55276;53.260;50.222;2022-08-21T07:39:06;28.10;41.60
68358;DHT22;55276;53.260;50.222;2022-08-21T07:41:33;28.10;41.40
68358;DHT22;55276;53.260;50.222;2022-08-21T07:44:00;28.20;41.40
68358;DHT22;55276;53.260;50.222;2022-08-21T07:46:26;28.20;41.40
68358;DHT22;55276;53.260;50.222;2022-08-21T07:48:52;28.40;41.20
68358;DHT22;55276;53.260;50.222;2022-08-21T07:51:20;28.20;41.40
68358;DHT22;55276;53.260;50.222;2022-08-21T07:53:48;28.30;41.50
68358;DHT22;55276;53.260;50.222;2022-08-21T07:56:14;28.40;41.30
68358;DHT22;55276;53.260;50.222;2022-08-21T07:58:40;28.60;41.00
68358;DHT22;55276;53.260;50.222;2022-08-21T08:01:06;28.60;41.00
68358;DHT22;55276;53.260;50.222;2022-08-21T08:03:32;28.60;40.90
68358;DHT22;55276;53.260;50.222;2022-08-21T08:05:58;28.80;40.70
68358;DHT22;55276;53.260;50.222;2022-08-21T08:08:25;28.80;40.40
68358;DHT22;55276;53.260;50.222;2022-08-21T08:10:51;28.80;40.30
68358;DHT22;55276;53.260;50.222;2022-08-21T08:13:18;28.80;40.30
68358;DHT22;55276;53.260;50.222;2022-08-21T08:15:44;29.00;40.10
68358;DHT22;55276;53.260;50.222;2022-08-21T08:18:10;29.10;39.80
68358;DHT22;55276;53.260;50.222;2022-08-21T08:20:36;29.20;39.60
68358;DHT22;55276;53.260;50.222;2022-08-21T08:23:03;29.10;39.40
68358;DHT22;55276;53.260;50.222;2022-08-21T08:25:29;29.10;39.50
68358;DHT22;55276;53.260;50.222;2022-08-21T08:27:55;29.30;39.10
68358;DHT22;55276;53.260;50.222;2022-08-21T08:30:21;29.30;39.10
68358;DHT22;55276;53.260;50.222;2022-08-21T08:32:49;29.30;39.10
68358;DHT22;55276;53.260;50.222;2022-08-21T08:35:15;29.30;38.80
68358;DHT22;55276;53.260;50.222;2022-08-21T08:37:42;29.30;38.60
68358;DHT22;55276;53.260;50.222;2022-08-21T08:40:18;29.40;38.70
68358;DHT22;55276;53.260;50.222;2022-08-21T08:42:45;29.30;38.20
68358;DHT22;55276;53.260;50.222;2022-08-21T08:45:13;29.20;38.30
68358;DHT22;55276;53.260;50.222;2022-08-21T08:47:43;29.30;38.10
68358;DHT22;55276;53.260;50.222;2022-08-21T08:50:20;29.50;37.70
68358;DHT22;55276;53.260;50.222;2022-08-21T08:52:49;29.70;37.30
68358;DHT22;55276;53.260;50.222;2022-08-21T08:55:17;29.80;37.10
68358;DHT22;55276;53.260;50.222;2022-08-21T08:57:45;29.90;37.10
68358;DHT22;55276;53.260;50.222;2022-08-21T09:00:12;29.90;36.90
68358;DHT22;55276;53.260;50.222;2022-08-21T09:02:39;29.90;36.70
68358;DHT22;55276;53.260;50.222;2022-08-21T09:05:05;29.90;36.70
68358;DHT22;55276;53.260;50.222;2022-08-21T09:10:11;29.90;36.50
68358;DHT22;55276;53.260;50.222;2022-08-21T09:17:58;30.00;35.90
68358;DHT22;55276;53.260;50.222;2022-08-21T09:23:17;29.90;35.90
68358;DHT22;55276;53.260;50.222;2022-08-21T09:26:14;29.90;35.80
68358;DHT22;55276;53.260;50.222;2022-08-21T09:28:40;29.80;35.20
68358;DHT22;55276;53.260;50.222;2022-08-21T09:31:16;29.90;34.70
68358;DHT22;55276;53.260;50.222;2022-08-21T09:33:46;29.90;34.50
68358;DHT22;55276;53.260;50.222;2022-08-21T09:36:12;30.00;34.50
68358;DHT22;55276;53.260;50.222;2022-08-21T09:38:51;30.10;34.40
68358;DHT22;55276;53.260;50.222;2022-08-21T09:41:25;30.10;34.30
68358;DHT22;55276;53.260;50.222;2022-08-21T09:43:52;30.20;34.20
68358;DHT22;55276;53.260;50.222;2022-08-21T09:46:22;30.20;34.40
68358;DHT22;55276;53.260;50.222;2022-08-21T09:48:49;30.30;34.30
68358;DHT22;55276;53.260;50.222;2022-08-21T09:51:20;30.40;34.10
68358;DHT22;55276;53.260;50.222;2022-08-21T09:53:51;30.30;34.00
68358;DHT22;55276;53.260;50.222;2022-08-21T09:56:38;30.40;34.10
68358;DHT22;55276;53.260;50.222;2022-08-21T09:59:27;30.60;34.10
68358;DHT22;55276;53.260;50.222;2022-08-21T10:01:56;30.60;33.90
68358;DHT22;55276;53.260;50.222;2022-08-21T10:04:31;30.60;33.60
68358;DHT22;55276;53.260;50.222;2022-08-21T10:07:07;30.50;33.70
68358;DHT22;55276;53.260;50.222;2022-08-21T10:09:34;30.50;33.90
68358;DHT22;55276;53.260;50.222;2022-08-21T10:32:35;30.40;33.20
68358;DHT22;55276;53.260;50.222;2022-08-21T10:40:30;30.40;34.00
68358;DHT22;55276;53.260;50.222;2022-08-21T10:45:42;30.60;33.80
68358;DHT22;55276;53.260;50.222;2022-08-21T10:48:14;30.70;33.70
68358;DHT22;55276;53.260;50.222;2022-08-21T10:50:42;30.80;33.60
68358;DHT22;55276;53.260;50.222;2022-08-21T10:53:16;30.80;33.70
68358;DHT22;55276;53.260;50.222;2022-08-21T10:55:48;30.90;33.50
68358;DHT22;55276;53.260;50.222;2022-08-21T10:58:25;30.80;33.40
68358;DHT22;55276;53.260;50.222;2022-08-21T11:00:56;31.00;33.30
68358;DHT22;55276;53.260;50.222;2022-08-21T11:03:28;31.10;32.90
68358;DHT22;55276;53.260;50.222;2022-08-21T11:05:55;31.20;32.30
68358;DHT22;55276;53.260;50.222;2022-08-21T11:08:26;31.30;31.90
68358;DHT22;55276;53.260;50.222;2022-08-21T11:10:59;31.60;31.40
68358;DHT22;55276;53.260;50.222;2022-08-21T11:13:38;32.90;30.00
68358;DHT22;55276;53.260;50.222;2022-08-21T11:16:16;35.20;27.70
68358;DHT22;55276;53.260;50.222;2022-08-21T11:18:47;37.60;25.50
68358;DHT22;55276;53.260;50.222;2022-08-21T11:23:49;40.10;23.30
68358;DHT22;55276;53.260;50.222;2022-08-21T11:29:16;41.90;22.00
68358;DHT22;55276;53.260;50.222;2022-08-21T11:31:47;43.40;21.30
68358;DHT22;55276;53.260;50.222;2022-08-21T11:42:02;49.30;18.00
68358;DHT22;55276;53.260;50.222;2022-08-21T11:44:56;50.00;17.60
68358;DHT22;55276;53.260;50.222;2022-08-21T11:55:17;49.60;17.20
68358;DHT22;55276;53.260;50.222;2022-08-21T11:57:47;50.70;16.80
68358;DHT22;55276;53.260;50.222;2022-08-21T12:00:19;51.50;16.40
68358;DHT22;55276;53.260;50.222;2022-08-21T12:02:48;51.40;16.40
68358;DHT22;55276;53.260;50.222;2022-08-21T12:05:27;52.40;16.00
68358;DHT22;55276;53.260;50.222;2022-08-21T12:10:58;53.00;15.30
68358;DHT22;55276;53.260;50.222;2022-08-21T12:13:26;49.20;16.90
68358;DHT22;55276;53.260;50.222;2022-08-21T12:15:52;47.70;17.60
68358;DHT22;55276;53.260;50.222;2022-08-21T12:18:20;48.90;16.90
68358;DHT22;55276;53.260;50.222;2022-08-21T12:23:26;52.50;15.60
68358;DHT22;55276;53.260;50.222;2022-08-21T12:26:15;53.50;15.10
68358;DHT22;55276;53.260;50.222;2022-08-21T12:28:44;53.50;14.90
68358;DHT22;55276;53.260;50.222;2022-08-21T12:31:20;54.40;14.60
68358;DHT22;55276;53.260;50.222;2022-08-21T12:34:04;54.50;14.60
68358;DHT22;55276;53.260;50.222;2022-08-21T12:37:00;54.70;14.50
68358;DHT22;55276;53.260;50.222;2022-08-21T12:39:22;54.30;14.70
68358;DHT22;55276;53.260;50.222;2022-08-21T12:41:51;49.70;16.00
68358;DHT22;55276;53.260;50.222;2022-08-21T12:44:22;44.60;18.40
68358;DHT22;55276;53.260;50.222;2022-08-21T12:47:00;41.80;20.10
68358;DHT22;55276;53.260;50.222;2022-08-21T12:49:41;39.60;21.90
68358;DHT22;55276;53.260;50.222;2022-08-21T12:52:11;37.30;23.50
68358;DHT22;55276;53.260;50.222;2022-08-21T12:54:41;36.00;24.60
68358;DHT22;55276;53.260;50.222;2022-08-21T12:57:08;35.40;25.30
68358;DHT22;55276;53.260;50.222;2022-08-21T12:59:39;34.90;25.80
68358;DHT22;55276;53.260;50.222;2022-08-21T13:02:11;34.50;26.00
68358;DHT22;55276;53.260;50.222;2022-08-21T13:04:40;34.20;26.40
68358;DHT22;55276;53.260;50.222;2022-08-21T13:07:11;33.90;26.80
68358;DHT22;55276;53.260;50.222;2022-08-21T13:09:47;33.50;27.00
68358;DHT22;55276;53.260;50.222;2022-08-21T13:12:14;33.40;27.00
68358;DHT22;55276;53.260;50.222;2022-08-21T13:14:41;33.40;27.00
68358;DHT22;55276;53.260;50.222;2022-08-21T13:17:09;33.20;27.00
68358;DHT22;55276;53.260;50.222;2022-08-21T13:19:36;33.10;27.00
68358;DHT22;55276;53.260;50.222;2022-08-21T13:22:03;33.10;27.00
68358;DHT22;55276;53.260;50.222;2022-08-21T13:24:30;32.90;27.00
68358;DHT22;55276;53.260;50.222;2022-08-21T13:26:58;32.70;27.30
68358;DHT22;55276;53.260;50.222;2022-08-21T13:29:29;32.50;27.30
68358;DHT22;55276;53.260;50.222;2022-08-21T13:31:59;32.30;27.60
68358;DHT22;55276;53.260;50.222;2022-08-21T13:34:28;31.90;28.30
68358;DHT22;55276;53.260;50.222;2022-08-21T13:36:57;31.50;28.70
68358;DHT22;55276;53.260;50.222;2022-08-21T13:39:24;31.50;28.80
68358;DHT22;55276;53.260;50.222;2022-08-21T13:41:51;31.40;28.90
68358;DHT22;55276;53.260;50.222;2022-08-21T13:44:22;31.30;29.00
68358;DHT22;55276;53.260;50.222;2022-08-21T13:46:52;31.30;29.00
68358;DHT22;55276;53.260;50.222;2022-08-21T13:49:20;31.40;28.80
68358;DHT22;55276;53.260;50.222;2022-08-21T13:51:48;31.50;28.70
68358;DHT22;55276;53.260;50.222;2022-08-21T13:54:25;31.60;28.60
68358;DHT22;55276;53.260;50.222;2022-08-21T13:56:53;31.60;28.50
68358;DHT22;55276;53.260;50.222;2022-08-21T14:01:52;31.40;28.60
68358;DHT22;55276;53.260;50.222;2022-08-21T14:04:22;31.40;28.50
68358;DHT22;55276;53.260;50.222;2022-08-21T14:06:49;31.40;28.60
68358;DHT22;55276;53.260;50.222;2022-08-21T14:09:34;31.30;28.70
68358;DHT22;55276;53.260;50.222;2022-08-21T14:12:14;31.20;28.80
68358;DHT22;55276;53.260;50.222;2022-08-21T14:14:40;31.00;28.80
68358;DHT22;55276;53.260;50.222;2022-08-21T14:17:09;31.00;28.90
68358;DHT22;55276;53.260;50.222;2022-08-21T14:22:21;30.80;29.10
68358;DHT22;55276;53.260;50.222;2022-08-21T14:24:47;30.70;29.20
68358;DHT22;55276;53.260;50.222;2022-08-21T14:27:15;30.60;29.40
68358;DHT22;55276;53.260;50.222;2022-08-21T14:29:42;30.60;29.60
68358;DHT22;55276;53.260;50.222;2022-08-21T14:32:20;30.60;29.90
68358;DHT22;55276;53.260;50.222;2022-08-21T14:34:46;30.70;29.90
68358;DHT22;55276;53.260;50.222;2022-08-21T14:37:12;30.70;30.00
68358;DHT22;55276;53.260;50.222;2022-08-21T14:39:38;30.50;30.20
68358;DHT22;55276;53.260;50.222;2022-08-21T14:42:04;30.40;30.60
68358;DHT22;55276;53.260;50.222;2022-08-21T14:44:30;30.20;30.90
68358;DHT22;55276;53.260;50.222;2022-08-21T14:46:58;30.10;31.10
68358;DHT22;55276;53.260;50.222;2022-08-21T14:49:24;30.00;31.50
68358;DHT22;55276;53.260;50.222;2022-08-21T14:51:51;29.90;31.70
68358;DHT22;55276;53.260;50.222;2022-08-21T14:54:23;29.90;31.90
68358;DHT22;55276;53.260;50.222;2022-08-21T14:56:49;29.80;32.20
68358;DHT22;55276;53.260;50.222;2022-08-21T14:59:16;29.60;32.50
68358;DHT22;55276;53.260;50.222;2022-08-21T15:01:42;29.60;32.80
68358;DHT22;55276;53.260;50.222;2022-08-21T15:04:08;29.40;33.00
68358;DHT22;55276;53.260;50.222;2022-08-21T15:06:34;29.30;33.20
68358;DHT22;55276;53.260;50.222;2022-08-21T15:09:00;29.60;33.20
68358;DHT22;55276;53.260;50.222;2022-08-21T15:11:29;30.60;32.30
68358;DHT22;55276;53.260;50.222;2022-08-21T15:13:56;31.50;31.20
68358;DHT22;55276;53.260;50.222;2022-08-21T15:16:23;32.10;30.50
68358;DHT22;55276;53.260;50.222;2022-08-21T15:18:50;32.40;30.30
68358;DHT22;55276;53.260;50.222;2022-08-21T15:21:16;32.00;30.60
68358;DHT22;55276;53.260;50.222;2022-08-21T15:23:42;31.10;31.60
68358;DHT22;55276;53.260;50.222;2022-08-21T15:26:08;30.40;32.50
68358;DHT22;55276;53.260;50.222;2022-08-21T15:28:34;29.80;33.30
68358;DHT22;55276;53.260;50.222;2022-08-21T15:31:02;29.40;33.90
68358;DHT22;55276;53.260;50.222;2022-08-21T15:33:30;29.00;34.50
68358;DHT22;55276;53.260;50.222;2022-08-21T15:35:56;28.70;35.00
68358;DHT22;55276;53.260;50.222;2022-08-21T15:38:22;28.40;35.30
68358;DHT22;55276;53.260;50.222;2022-08-21T15:40:48;28.30;35.70
68358;DHT22;55276;53.260;50.222;2022-08-21T15:43:21;28.10;36.10
68358;DHT22;55276;53.260;50.222;2022-08-21T15:45:47;27.90;36.30
68358;DHT22;55276;53.260;50.222;2022-08-21T15:48:14;27.90;36.60
68358;DHT22;55276;53.260;50.222;2022-08-21T15:50:40;27.70;36.80
68358;DHT22;55276;53.260;50.222;2022-08-21T15:53:06;27.60;36.90
68358;DHT22;55276;53.260;50.222;2022-08-21T15:55:33;27.40;37.10
68358;DHT22;55276;53.260;50.222;2022-08-21T15:57:59;27.40;37.10
68358;DHT22;55276;53.260;50.222;2022-08-21T16:00:26;27.30;37.30
68358;DHT22;55276;53.260;50.222;2022-08-21T16:02:54;27.10;37.50
68358;DHT22;55276;53.260;50.222;2022-08-21T16:05:21;27.00;37.70
68358;DHT22;55276;53.260;50.222;2022-08-21T16:07:47;26.90;38.00
68358;DHT22;55276;53.260;50.222;2022-08-21T16:10:16;26.90;38.20
68358;DHT22;55276;53.260;50.222;2022-08-21T16:12:44;26.80;38.50
68358;DHT22;55276;53.260;50.222;2022-08-21T16:15:12;26.80;38.80
68358;DHT22;55276;53.260;50.222;2022-08-21T16:17:39;26.70;39.30
68358;DHT22;55276;53.260;50.222;2022-08-21T16:20:16;26.60;39.40
68358;DHT22;55276;53.260;50.222;2022-08-21T16:22:42;26.60;39.60
68358;DHT22;55276;53.260;50.222;2022-08-21T16:25:09;26.40;39.70
68358;DHT22;55276;53.260;50.222;2022-08-21T16:27:35;26.40;39.90
68358;DHT22;55276;53.260;50.222;2022-08-21T16:30:04;26.40;40.20
68358;DHT22;55276;53.260;50.222;2022-08-21T16:32:30;26.30;40.40